createdAt,value
2023-01-18T00:00:21.912Z,20.10
2023-01-18T00:02:49.277Z,20.10
2023-01-18T00:05:16.235Z,20.00
2023-01-18T00:07:42.964Z,20.00
2023-01-18T00:10:10.223Z,20.00
2023-01-18T00:12:36.897Z,20.00
2023-01-18T00:15:04.702Z,20.00
2023-01-18T00:17:31.394Z,20.00
2023-01-18T00:19:58.150Z,20.00
2023-01-18T00:22:24.859Z,20.00
2023-01-18T00:24:51.545Z,19.90
2023-01-18T00:27:18.207Z,19.90
2023-01-18T00:29:44.928Z,20.00
2023-01-18T00:32:11.623Z,19.90
2023-01-18T00:34:38.358Z,19.90
2023-01-18T00:37:05.036Z,19.90
2023-01-18T00:39:31.740Z,19.90
2023-01-18T00:42:17.351Z,19.90
2023-01-18T00:44:44.506Z,19.90
2023-01-18T00:47:11.226Z,19.90
2023-01-18T00:49:37.889Z,19.90
2023-01-18T00:52:04.727Z,19.90
2023-01-18T00:54:31.408Z,19.90
2023-01-18T00:56:58.130Z,19.80
2023-01-18T00:59:25.098Z,19.80
2023-01-18T01:01:51.949Z,19.80
2023-01-18T01:04:37.396Z,19.80
2023-01-18T01:07:04.120Z,19.80
2023-01-18T01:09:30.834Z,19.80
2023-01-18T01:12:16.828Z,19.80
2023-01-18T01:15:04.821Z,19.80
2023-01-18T01:17:52.821Z,19.80
2023-01-18T01:20:38.168Z,19.80
2023-01-18T01:23:34.239Z,19.80
2023-01-18T01:26:08.072Z,19.80
2023-01-18T01:28:42.901Z,19.70
2023-01-18T01:31:12.676Z,19.70
2023-01-18T01:33:40.030Z,19.70
2023-01-18T01:36:13.687Z,19.70
2023-01-18T01:38:43.793Z,19.70
2023-01-18T01:41:28.407Z,19.70
2023-01-18T01:44:18.393Z,19.70
2023-01-18T01:46:53.734Z,19.70
2023-01-18T01:49:28.395Z,19.70
2023-01-18T01:52:00.219Z,19.70
2023-01-18T01:54:37.356Z,19.70
2023-01-18T01:57:10.839Z,19.70
2023-01-18T01:59:42.072Z,19.70
2023-01-18T02:02:09.826Z,19.70
2023-01-18T02:04:37.266Z,19.70
2023-01-18T02:07:03.990Z,19.70
2023-01-18T02:09:30.685Z,19.70
2023-01-18T02:11:57.353Z,19.70
2023-01-18T02:14:26.525Z,19.60
2023-01-18T02:17:02.250Z,19.60
2023-01-18T02:19:55.937Z,19.60
2023-01-18T02:22:48.562Z,19.70
2023-01-18T02:25:49.911Z,19.60
2023-01-18T02:28:37.688Z,19.60
2023-01-18T02:31:17.217Z,19.60
2023-01-18T02:34:05.123Z,19.60
2023-01-18T02:36:36.415Z,19.60
2023-01-18T02:39:32.400Z,19.60
2023-01-18T02:42:34.487Z,19.60
2023-01-18T02:45:22.553Z,19.60
2023-01-18T02:47:50.186Z,19.60
2023-01-18T02:50:27.183Z,19.60
2023-01-18T02:52:54.423Z,19.60
2023-01-18T02:55:38.990Z,19.60
2023-01-18T02:58:15.434Z,19.60
2023-01-18T03:00:48.679Z,19.60
2023-01-18T03:03:18.281Z,19.50
2023-01-18T03:05:47.888Z,19.50
2023-01-18T03:08:26.901Z,19.50
2023-01-18T03:11:03.056Z,19.50
2023-01-18T03:13:50.971Z,19.60
2023-01-18T03:16:40.442Z,19.50
2023-01-18T03:19:32.665Z,19.50
2023-01-18T03:22:00.737Z,19.50
2023-01-18T03:24:30.267Z,19.50
2023-01-18T03:27:17.904Z,19.50
2023-01-18T03:30:05.261Z,19.50
2023-01-18T03:32:53.352Z,19.50
2023-01-18T03:35:26.765Z,19.50
2023-01-18T03:37:56.275Z,19.50
2023-01-18T03:40:29.315Z,19.50
2023-01-18T03:43:08.563Z,19.50
2023-01-18T03:45:41.166Z,19.50
2023-01-18T03:48:08.829Z,19.50
2023-01-18T03:51:00.789Z,19.50
2023-01-18T03:53:34.921Z,19.50
2023-01-18T03:56:20.740Z,19.50
2023-01-18T03:58:49.380Z,19.50
2023-01-18T04:01:16.308Z,19.50
2023-01-18T04:03:43.077Z,19.50
2023-01-18T04:06:09.962Z,19.50
2023-01-18T04:08:36.667Z,19.50
2023-01-18T04:11:03.439Z,19.50
2023-01-18T04:13:30.115Z,19.50
2023-01-18T04:15:56.821Z,19.50
2023-01-18T04:18:23.494Z,19.50
2023-01-18T04:20:50.346Z,19.50
2023-01-18T04:23:17.017Z,19.50
2023-01-18T04:25:49.910Z,19.50
2023-01-18T04:28:17.411Z,19.50
2023-01-18T04:30:44.125Z,19.50
2023-01-18T04:33:10.819Z,19.50
2023-01-18T04:35:37.487Z,19.50
2023-01-18T04:38:04.252Z,19.50
2023-01-18T04:40:30.954Z,19.50
2023-01-18T04:42:57.965Z,19.50
2023-01-18T04:45:24.749Z,19.50
2023-01-18T04:47:51.420Z,19.50
2023-01-18T04:50:18.119Z,19.50
2023-01-18T04:52:44.846Z,19.50
2023-01-18T04:55:15.182Z,19.50
2023-01-18T04:57:43.286Z,19.50
2023-01-18T05:00:12.267Z,19.50
2023-01-18T05:02:39.320Z,19.50
2023-01-18T05:05:06.733Z,19.50
2023-01-18T05:07:36.826Z,19.50
2023-01-18T05:10:04.150Z,19.50
2023-01-18T05:12:30.968Z,19.50
2023-01-18T05:14:57.650Z,19.50
2023-01-18T05:17:27.378Z,19.50
2023-01-18T05:19:54.868Z,19.40
2023-01-18T05:22:22.387Z,19.50
2023-01-18T05:24:49.588Z,19.50
2023-01-18T05:27:16.960Z,19.40
2023-01-18T05:29:44.136Z,19.40
2023-01-18T05:32:11.381Z,19.50
2023-01-18T05:34:38.075Z,19.50
2023-01-18T05:37:05.315Z,19.50
2023-01-18T05:39:32.058Z,19.50
2023-01-18T05:42:00.156Z,19.40
2023-01-18T05:44:27.021Z,19.50
2023-01-18T05:46:53.739Z,19.50
2023-01-18T05:49:20.527Z,19.40
2023-01-18T05:51:47.199Z,19.50
2023-01-18T05:54:13.894Z,19.50
2023-01-18T05:56:40.567Z,19.50
2023-01-18T05:59:07.490Z,19.50
2023-01-18T06:01:34.681Z,19.50
2023-01-18T06:04:01.477Z,19.50
2023-01-18T06:06:28.324Z,19.50
2023-01-18T06:08:55.257Z,19.50
2023-01-18T06:11:21.959Z,19.50
2023-01-18T06:13:48.632Z,19.50
2023-01-18T06:16:15.398Z,19.50
2023-01-18T06:18:42.101Z,19.50
2023-01-18T06:21:10.795Z,19.50
2023-01-18T06:23:37.806Z,19.50
2023-01-18T06:26:04.737Z,19.50
2023-01-18T06:28:31.454Z,19.50
2023-01-18T06:30:58.851Z,19.50
2023-01-18T06:33:25.640Z,19.50
2023-01-18T06:35:52.782Z,19.50
2023-01-18T06:38:20.604Z,19.50
2023-01-18T06:40:47.266Z,19.50
2023-01-18T06:43:14.356Z,19.50
2023-01-18T06:45:41.516Z,19.50
2023-01-18T06:48:08.679Z,19.50
2023-01-18T06:50:35.519Z,19.60
2023-01-18T06:53:02.369Z,19.50
2023-01-18T06:55:29.136Z,19.60
2023-01-18T06:57:57.124Z,19.60
2023-01-18T07:00:24.038Z,19.60
2023-01-18T07:02:53.798Z,19.60
2023-01-18T07:05:20.527Z,19.60
2023-01-18T07:07:47.284Z,19.70
2023-01-18T07:10:16.357Z,19.70
2023-01-18T07:12:47.338Z,19.70
2023-01-18T07:15:21.478Z,19.70
2023-01-18T07:17:50.232Z,19.70
2023-01-18T07:20:17.382Z,19.80
2023-01-18T07:22:44.166Z,19.80
2023-01-18T07:25:13.297Z,19.80
2023-01-18T07:27:43.243Z,19.80
2023-01-18T07:30:14.558Z,19.80
2023-01-18T07:32:48.958Z,19.80
2023-01-18T07:35:21.995Z,19.80
2023-01-18T07:37:53.344Z,19.80
2023-01-18T07:40:22.926Z,19.80
2023-01-18T07:42:56.853Z,19.90
2023-01-18T07:45:23.774Z,19.80
2023-01-18T07:47:52.078Z,19.90
2023-01-18T07:50:18.854Z,19.90
2023-01-18T07:52:45.522Z,19.90
2023-01-18T07:55:12.194Z,19.90
2023-01-18T07:57:38.899Z,19.90
2023-01-18T08:00:10.554Z,19.90
2023-01-18T08:02:37.273Z,19.90
2023-01-18T08:05:04.826Z,19.90
2023-01-18T08:07:34.629Z,19.90
2023-01-18T08:10:01.308Z,19.90
2023-01-18T08:12:27.994Z,19.90
2023-01-18T08:14:54.686Z,19.90
2023-01-18T08:17:21.363Z,20.00
2023-01-18T08:19:48.068Z,20.00
2023-01-18T08:22:14.814Z,20.00
2023-01-18T08:24:41.487Z,20.00
2023-01-18T08:27:08.250Z,20.00
2023-01-18T08:29:35.004Z,20.10
2023-01-18T08:32:02.445Z,20.10
2023-01-18T08:34:29.133Z,20.10
2023-01-18T08:36:55.796Z,20.20
2023-01-18T08:39:22.554Z,20.20
2023-01-18T08:41:49.535Z,20.20
2023-01-18T08:44:16.316Z,20.20
2023-01-18T08:46:43.054Z,20.30
2023-01-18T08:49:10.866Z,20.30
2023-01-18T08:51:37.680Z,20.30
2023-01-18T08:54:06.443Z,20.40
2023-01-18T08:56:33.482Z,20.40
2023-01-18T08:59:00.723Z,20.40
2023-01-18T09:01:27.534Z,20.50
2023-01-18T09:03:56.126Z,20.50
2023-01-18T09:06:22.945Z,20.50
2023-01-18T09:08:50.233Z,20.60
2023-01-18T09:11:18.524Z,20.60
2023-01-18T09:13:59.737Z,20.60
2023-01-18T09:16:27.527Z,20.60
2023-01-18T09:18:56.191Z,20.60
2023-01-18T09:21:23.114Z,20.70
2023-01-18T09:23:50.905Z,20.70
2023-01-18T09:26:20.184Z,20.70
2023-01-18T09:28:52.694Z,20.70
2023-01-18T09:31:21.631Z,20.70
2023-01-18T09:33:53.339Z,20.80
2023-01-18T09:36:26.129Z,20.80
2023-01-18T09:38:52.966Z,20.80
2023-01-18T09:41:35.166Z,20.80
2023-01-18T09:44:08.724Z,20.80
2023-01-18T09:46:39.179Z,20.90
2023-01-18T09:49:23.389Z,20.90
2023-01-18T09:52:25.287Z,20.90
2023-01-18T09:55:10.734Z,21.00
2023-01-18T09:57:40.302Z,20.90
2023-01-18T10:00:39.119Z,20.90
2023-01-18T10:03:21.284Z,20.90
2023-01-18T10:06:08.794Z,20.90
2023-01-18T10:09:01.725Z,20.90
2023-01-18T10:11:48.560Z,20.80
2023-01-18T10:14:19.161Z,20.80
2023-01-18T10:16:58.692Z,20.80
2023-01-18T10:19:29.364Z,20.80
2023-01-18T10:22:40.566Z,20.80
2023-01-18T10:25:30.773Z,20.80
2023-01-18T10:28:29.359Z,20.70
2023-01-18T10:31:02.859Z,20.70
2023-01-18T10:33:35.833Z,20.70
2023-01-18T10:36:11.868Z,20.70
2023-01-18T10:38:40.887Z,20.70
2023-01-18T10:41:27.691Z,20.70
2023-01-18T10:43:55.303Z,20.70
2023-01-18T10:46:21.987Z,20.70
2023-01-18T10:48:53.453Z,20.60
2023-01-18T10:51:31.739Z,20.60
2023-01-18T10:53:59.068Z,20.60
2023-01-18T10:56:27.007Z,20.60
2023-01-18T10:58:58.006Z,20.60
2023-01-18T11:01:34.566Z,20.60
2023-01-18T11:04:07.467Z,20.60
2023-01-18T11:06:45.457Z,20.60
2023-01-18T11:09:42.886Z,20.50
2023-01-18T11:12:34.443Z,20.60
2023-01-18T11:15:16.407Z,20.60
2023-01-18T11:17:43.656Z,20.60
2023-01-18T11:20:17.067Z,20.60
2023-01-18T11:23:10.052Z,20.60
2023-01-18T11:25:40.031Z,20.60
2023-01-18T11:28:17.988Z,20.60
2023-01-18T11:30:59.798Z,20.60
2023-01-18T11:33:28.385Z,20.60
2023-01-18T11:35:59.201Z,20.60
2023-01-18T11:38:31.672Z,20.60
2023-01-18T11:41:06.865Z,20.60
2023-01-18T11:43:39.435Z,20.60
2023-01-18T11:46:26.204Z,20.60
2023-01-18T11:48:54.927Z,20.60
2023-01-18T11:51:45.770Z,20.60
2023-01-18T11:54:26.541Z,20.60
2023-01-18T11:56:56.135Z,20.70
2023-01-18T11:59:39.208Z,20.60
2023-01-18T12:02:46.437Z,20.60
2023-01-18T12:05:45.899Z,20.70
2023-01-18T12:08:46.068Z,20.70
2023-01-18T12:11:45.659Z,20.70
2023-01-18T12:14:18.750Z,20.70
2023-01-18T12:17:05.713Z,20.70
2023-01-18T12:19:38.262Z,20.70
2023-01-18T12:22:29.881Z,20.70
2023-01-18T12:25:21.263Z,20.70
2023-01-18T12:27:53.790Z,20.70
2023-01-18T12:30:50.688Z,20.70
2023-01-18T12:33:43.545Z,20.70
2023-01-18T12:36:41.191Z,20.70
2023-01-18T12:39:39.718Z,20.70
2023-01-18T12:42:15.327Z,20.70
2023-01-18T12:45:05.143Z,20.70
2023-01-18T12:47:38.083Z,20.70
2023-01-18T12:50:14.496Z,20.70
2023-01-18T12:52:47.844Z,20.70
2023-01-18T12:55:26.144Z,20.70
2023-01-18T12:57:58.946Z,20.70
2023-01-18T13:00:39.265Z,20.70
2023-01-18T13:03:13.126Z,20.70
2023-01-18T13:06:04.151Z,20.70
2023-01-18T13:08:45.845Z,20.70
2023-01-18T13:11:35.514Z,20.60
2023-01-18T13:14:33.508Z,20.70
2023-01-18T13:17:12.927Z,20.60
2023-01-18T13:19:45.512Z,20.60
2023-01-18T13:22:28.860Z,20.60
2023-01-18T13:25:08.839Z,20.60
2023-01-18T13:27:37.756Z,20.60
2023-01-18T13:30:15.221Z,20.60
2023-01-18T13:32:44.908Z,20.60
2023-01-18T13:35:21.288Z,20.60
2023-01-18T13:37:57.804Z,20.60
2023-01-18T13:40:34.534Z,20.60
2023-01-18T13:43:01.347Z,20.60
2023-01-18T13:45:29.923Z,20.60
2023-01-18T13:48:01.299Z,20.60
2023-01-18T13:50:31.384Z,20.60
2023-01-18T13:53:13.628Z,20.60
2023-01-18T13:55:52.452Z,20.60
2023-01-18T13:58:20.780Z,20.60
2023-01-18T14:00:48.883Z,20.60
2023-01-18T14:03:20.907Z,20.60
2023-01-18T14:05:49.320Z,20.60
2023-01-18T14:08:24.647Z,20.60
2023-01-18T14:10:55.645Z,20.60
2023-01-18T14:13:54.222Z,20.60
2023-01-18T14:16:26.528Z,20.60
2023-01-18T14:19:17.554Z,20.60
2023-01-18T14:22:00.819Z,20.60
2023-01-18T14:24:51.269Z,20.60
2023-01-18T14:27:22.221Z,20.60
2023-01-18T14:29:59.178Z,20.50
2023-01-18T14:32:32.779Z,20.50
2023-01-18T14:35:01.944Z,20.50
2023-01-18T14:37:31.631Z,20.50
2023-01-18T14:40:26.333Z,20.50
2023-01-18T14:43:01.766Z,20.50
2023-01-18T14:45:30.217Z,20.50
2023-01-18T14:48:07.364Z,20.50
2023-01-18T14:50:40.140Z,20.50
2023-01-18T14:53:12.697Z,20.50
2023-01-18T14:55:39.456Z,20.50
2023-01-18T14:58:15.844Z,20.50
2023-01-18T15:00:43.734Z,20.50
2023-01-18T15:03:20.513Z,20.40
2023-01-18T15:05:51.523Z,20.40
2023-01-18T15:08:20.258Z,20.40
2023-01-18T15:10:48.516Z,20.40
2023-01-18T15:13:18.376Z,20.40
2023-01-18T15:15:45.230Z,20.40
2023-01-18T15:18:20.695Z,20.40
2023-01-18T15:20:58.174Z,20.40
2023-01-18T15:23:26.608Z,20.40
2023-01-18T15:25:54.859Z,20.40
2023-01-18T15:28:24.346Z,20.40
2023-01-18T15:30:56.231Z,20.40
2023-01-18T15:33:26.185Z,20.40
2023-01-18T15:36:01.176Z,20.40
2023-01-18T15:38:28.176Z,20.40
2023-01-18T15:40:57.933Z,20.40
2023-01-18T15:43:29.445Z,20.40
2023-01-18T15:45:57.277Z,20.40
2023-01-18T15:48:26.330Z,20.40
2023-01-18T15:50:56.160Z,20.30
2023-01-18T15:53:33.734Z,20.30
2023-01-18T15:56:16.744Z,20.30
2023-01-18T15:58:46.821Z,20.30
2023-01-18T16:01:13.517Z,20.30
2023-01-18T16:03:45.974Z,20.30
2023-01-18T16:06:37.106Z,20.30
2023-01-18T16:09:12.104Z,20.30
2023-01-18T16:11:43.132Z,20.30
2023-01-18T16:14:28.213Z,20.30
2023-01-18T16:17:02.759Z,20.30
2023-01-18T16:19:57.784Z,20.30
2023-01-18T16:22:26.367Z,20.30
2023-01-18T16:24:55.704Z,20.20
2023-01-18T16:27:25.019Z,20.20
2023-01-18T16:30:00.906Z,20.20
2023-01-18T16:32:31.005Z,20.20
2023-01-18T16:35:11.071Z,20.20
2023-01-18T16:37:41.398Z,20.20
2023-01-18T16:40:09.243Z,20.20
2023-01-18T16:42:55.311Z,20.20
2023-01-18T16:45:22.167Z,20.20
2023-01-18T16:47:49.189Z,20.20
2023-01-18T16:50:17.011Z,20.20
2023-01-18T16:52:44.790Z,20.20
2023-01-18T16:55:15.306Z,20.20
2023-01-18T16:57:42.964Z,20.20
2023-01-18T17:00:16.781Z,20.20
2023-01-18T17:02:43.552Z,20.20
2023-01-18T17:05:10.695Z,20.20
2023-01-18T17:07:37.493Z,20.20
2023-01-18T17:10:33.975Z,20.20
2023-01-18T17:13:01.179Z,20.20
2023-01-18T17:15:29.986Z,20.20
2023-01-18T17:17:56.874Z,20.10
2023-01-18T17:20:25.824Z,20.10
2023-01-18T17:22:54.021Z,20.10
2023-01-18T17:25:21.787Z,20.10
2023-01-18T17:27:48.976Z,20.10
2023-01-18T17:30:19.460Z,20.10
2023-01-18T17:32:46.952Z,20.20
2023-01-18T17:35:16.162Z,20.10
2023-01-18T17:37:42.846Z,20.10
2023-01-18T17:40:17.215Z,20.10
2023-01-18T17:42:49.722Z,20.10
2023-01-18T17:45:16.517Z,20.10
2023-01-18T17:47:43.670Z,20.10
2023-01-18T17:50:17.425Z,20.10
2023-01-18T17:52:44.404Z,20.10
2023-01-18T17:55:12.965Z,20.10
2023-01-18T17:57:40.450Z,20.10
2023-01-18T18:00:09.322Z,20.10
2023-01-18T18:02:36.059Z,20.10
2023-01-18T18:05:04.023Z,20.10
2023-01-18T18:07:31.146Z,20.10
2023-01-18T18:10:01.011Z,20.10
2023-01-18T18:12:29.456Z,20.10
2023-01-18T18:14:56.301Z,20.10
2023-01-18T18:17:24.151Z,20.10
2023-01-18T18:19:51.355Z,20.10
2023-01-18T18:22:19.771Z,20.10
2023-01-18T18:24:47.786Z,20.10
2023-01-18T18:27:15.378Z,20.10
2023-01-18T18:29:42.211Z,20.10
2023-01-18T18:32:09.534Z,20.00
2023-01-18T18:34:37.197Z,20.10
2023-01-18T18:37:05.340Z,20.10
2023-01-18T18:39:33.264Z,20.10
2023-01-18T18:42:00.417Z,20.00
2023-01-18T18:44:27.332Z,20.10
2023-01-18T18:46:54.031Z,20.00
2023-01-18T18:49:20.803Z,20.00
2023-01-18T18:51:47.478Z,20.00
2023-01-18T18:54:14.240Z,20.00
2023-01-18T18:56:41.570Z,20.00
2023-01-18T18:59:08.428Z,20.00
2023-01-18T19:01:35.367Z,20.00
2023-01-18T19:04:03.015Z,20.00
2023-01-18T19:06:29.801Z,20.00
2023-01-18T19:08:57.266Z,20.00
2023-01-18T19:11:24.042Z,20.00
2023-01-18T19:13:50.863Z,20.00
2023-01-18T19:16:17.776Z,20.00
2023-01-18T19:18:44.500Z,20.00
2023-01-18T19:21:11.206Z,20.00
2023-01-18T19:23:37.910Z,19.90
2023-01-18T19:26:04.710Z,20.00
2023-01-18T19:28:31.395Z,20.00
2023-01-18T19:31:03.225Z,20.00
2023-01-18T19:33:29.999Z,20.00
2023-01-18T19:35:58.067Z,20.00
2023-01-18T19:38:26.404Z,20.00
2023-01-18T19:40:54.099Z,20.00
2023-01-18T19:43:22.212Z,20.10
2023-01-18T19:45:49.411Z,20.10
2023-01-18T19:48:16.626Z,20.20
2023-01-18T19:50:43.399Z,20.20
2023-01-18T19:53:10.608Z,20.20
2023-01-18T19:55:41.316Z,20.20
2023-01-18T19:58:08.260Z,20.20
2023-01-18T20:00:35.870Z,20.20
2023-01-18T20:03:03.160Z,20.20
2023-01-18T20:05:30.451Z,20.30
2023-01-18T20:07:57.955Z,20.30
2023-01-18T20:10:24.787Z,20.30
2023-01-18T20:12:52.100Z,20.30
2023-01-18T20:15:20.009Z,20.40
2023-01-18T20:17:47.077Z,20.40
2023-01-18T20:20:18.419Z,20.40
2023-01-18T20:22:54.665Z,20.40
2023-01-18T20:25:21.473Z,20.40
2023-01-18T20:27:48.490Z,20.40
2023-01-18T20:30:15.472Z,20.40
2023-01-18T20:32:42.681Z,20.40
2023-01-18T20:35:10.288Z,20.40
2023-01-18T20:37:37.652Z,20.40
2023-01-18T20:40:05.345Z,20.40
2023-01-18T20:42:32.601Z,20.40
2023-01-18T20:45:00.844Z,20.40
2023-01-18T20:47:28.547Z,20.40
2023-01-18T20:49:56.678Z,20.40
2023-01-18T20:52:23.741Z,20.40
2023-01-18T20:54:50.502Z,20.40
2023-01-18T20:57:18.668Z,20.40
2023-01-18T20:59:45.370Z,20.50
2023-01-18T21:02:12.486Z,20.40
2023-01-18T21:04:39.411Z,20.40
2023-01-18T21:07:06.075Z,20.40
2023-01-18T21:09:32.872Z,20.50
2023-01-18T21:11:59.712Z,20.50
2023-01-18T21:14:26.419Z,20.40
2023-01-18T21:16:53.256Z,20.40
2023-01-18T21:19:20.711Z,20.50
2023-01-18T21:21:47.460Z,20.40
2023-01-18T21:24:14.337Z,20.40
2023-01-18T21:26:41.060Z,20.40
2023-01-18T21:29:07.752Z,20.40
2023-01-18T21:31:34.484Z,20.40
2023-01-18T21:34:01.194Z,20.40
2023-01-18T21:36:28.048Z,20.40
2023-01-18T21:38:55.060Z,20.40
2023-01-18T21:41:40.581Z,20.50
2023-01-18T21:44:25.963Z,20.50
2023-01-18T21:46:53.055Z,20.40
2023-01-18T21:52:44.421Z,20.50
2023-01-18T21:55:11.450Z,20.40
2023-01-18T21:57:38.708Z,20.40
2023-01-18T22:00:06.325Z,20.50
2023-01-18T22:02:33.876Z,20.50
2023-01-18T22:05:00.660Z,20.50
2023-01-18T22:07:30.127Z,20.50
2023-01-18T22:10:06.086Z,20.50
2023-01-18T22:12:35.088Z,20.50
2023-01-18T22:15:03.026Z,20.50
2023-01-18T22:17:30.082Z,20.50
2023-01-18T22:19:57.046Z,20.50
2023-01-18T22:22:23.782Z,20.50
2023-01-18T22:24:50.465Z,20.50
2023-01-18T22:27:17.154Z,20.50
2023-01-18T22:29:43.895Z,20.50
2023-01-18T22:32:10.627Z,20.50
2023-01-18T22:34:37.360Z,20.50
2023-01-18T22:37:04.122Z,20.50
2023-01-18T22:39:30.884Z,20.50
2023-01-18T22:41:57.629Z,20.50
2023-01-18T22:44:24.363Z,20.50
2023-01-18T22:46:51.190Z,20.50
2023-01-18T22:49:18.057Z,20.50
2023-01-18T22:51:44.860Z,20.50
2023-01-18T22:54:11.658Z,20.50
2023-01-18T22:56:38.341Z,20.50
2023-01-18T22:59:05.079Z,20.50
2023-01-18T23:01:32.985Z,20.50
2023-01-18T23:04:01.936Z,20.50
2023-01-18T23:06:33.747Z,20.50
2023-01-18T23:09:00.430Z,20.50
2023-01-18T23:11:29.128Z,20.50
2023-01-18T23:14:16.615Z,20.40
2023-01-18T23:17:02.564Z,20.40
2023-01-18T23:19:30.755Z,20.40
2023-01-18T23:21:57.998Z,20.40
2023-01-18T23:24:25.534Z,20.40
2023-01-18T23:26:52.519Z,20.40
2023-01-18T23:29:20.421Z,20.40
2023-01-18T23:31:47.537Z,20.40
2023-01-18T23:34:14.384Z,20.40
2023-01-18T23:36:41.176Z,20.40
2023-01-18T23:39:26.655Z,20.40
2023-01-18T23:42:12.049Z,20.30
2023-01-18T23:44:57.732Z,20.40
2023-01-18T23:47:43.241Z,20.40
2023-01-18T23:50:29.308Z,20.30
2023-01-18T23:53:14.591Z,20.40
2023-01-18T23:55:41.536Z,20.30
2023-01-18T23:58:08.235Z,20.30
